Time;durP1;ratioP1;P1;durP2;ratioP2;P2;SDS_P1;SDS_P2;PMS_P1;PMS_P2;Temp;Humidity;BMP_temperature;BMP_pressure;BME280_temperature;BME280_humidity;BME280_pressure;Samples;Min_cycle;Max_cycle;Signal;HPM_P1;HPM_P2
2021/08/28 00:00:10;;;;;;;7.10;2.30;;;;;;;12.18;99.94;100949.42;110803;1201;61143;-79
2021/08/28 00:02:37;;;;;;;4.00;2.00;;;;;;;12.20;99.95;100947.17;110722;1203;62411;-79
2021/08/28 00:05:04;;;;;;;2.80;1.80;;;;;;;12.21;99.88;100946.48;110981;1201;61526;-78
2021/08/28 00:07:31;;;;;;;7.80;2.40;;;;;;;12.22;99.79;100946.88;111200;1201;74588;-80
2021/08/28 00:09:57;;;;;;;6.70;2.20;;;;;;;12.26;99.76;100940.67;111466;1202;70998;-78
2021/08/28 00:12:24;;;;;;;6.00;2.10;;;;;;;12.29;99.74;100940.88;110980;1203;61128;-78
2021/08/28 00:14:50;;;;;;;5.30;2.30;;;;;;;12.31;99.81;100938.00;110785;1202;61066;-80
2021/08/28 00:17:17;;;;;;;4.20;2.40;;;;;;;12.32;99.83;100938.06;111129;1195;61085;-78
2021/08/28 00:19:44;;;;;;;4.70;1.90;;;;;;;12.31;99.82;100938.80;111104;1202;62262;-79
2021/08/28 00:22:11;;;;;;;4.40;2.20;;;;;;;12.30;99.80;100940.11;110904;1203;72123;-79
2021/08/28 00:24:37;;;;;;;3.90;1.90;;;;;;;12.28;99.80;100942.61;111106;1201;72983;-78
2021/08/28 00:27:04;;;;;;;5.70;2.30;;;;;;;12.26;99.77;100942.45;110993;1202;61091;-78
2021/08/28 00:29:30;;;;;;;6.40;2.20;;;;;;;12.26;99.82;100939.67;110800;1202;61058;-78
2021/08/28 00:31:57;;;;;;;2.90;1.90;;;;;;;12.24;99.90;100942.45;110901;1202;62037;-79
2021/08/28 00:34:26;;;;;;;5.10;2.10;;;;;;;12.23;99.99;100943.98;111400;1195;70090;-80
2021/08/28 00:36:52;;;;;;;4.30;2.10;;;;;;;12.22;100.00;100944.95;111187;1203;73546;-79
2021/08/28 00:39:19;;;;;;;3.30;2.00;;;;;;;12.25;100.00;100947.69;111194;1196;61105;-78
2021/08/28 00:41:45;;;;;;;4.60;2.60;;;;;;;12.27;100.00;100949.47;111181;1195;61880;-78
2021/08/28 00:44:12;;;;;;;6.10;2.80;;;;;;;12.27;100.00;100951.16;111146;1201;61059;-78
2021/08/28 00:46:39;;;;;;;7.30;3.30;;;;;;;12.27;100.00;100949.77;111211;1202;70399;-78
2021/08/28 00:49:05;;;;;;;6.30;2.90;;;;;;;12.28;100.00;100950.60;111134;1201;72495;-78
2021/08/28 00:51:32;;;;;;;11.40;4.20;;;;;;;12.29;100.00;100948.65;110821;1196;61268;-79
2021/08/28 00:54:00;;;;;;;12.70;3.00;;;;;;;12.30;100.00;100953.66;111147;1202;61025;-79
2021/08/28 00:56:27;;;;;;;15.10;4.70;;;;;;;12.32;100.00;100957.21;111163;1195;74601;-77
2021/08/28 00:58:54;;;;;;;11.00;3.60;;;;;;;12.33;100.00;100951.09;110882;1202;71262;-77
2021/08/28 01:01:26;;;;;;;14.70;3.10;;;;;;;12.33;100.00;100947.45;110969;1202;61658;-78
2021/08/28 01:03:59;;;;;;;14.90;4.20;;;;;;;12.35;100.00;100950.67;111060;1201;61998;-78
2021/08/28 01:06:54;;;;;;;10.50;3.70;;;;;;;12.37;100.00;100953.08;111039;1202;61185;-78
2021/08/28 01:09:29;;;;;;;6.10;3.20;;;;;;;12.39;100.00;100954.96;111071;1202;75633;-77
2021/08/28 01:12:13;;;;;;;4.80;3.00;;;;;;;12.41;100.00;100953.46;111179;1195;70989;-78
2021/08/28 01:14:44;;;;;;;6.20;2.90;;;;;;;12.43;100.00;100957.80;111295;1202;73488;-79
2021/08/28 01:17:15;;;;;;;3.70;2.60;;;;;;;12.44;100.00;100958.55;111210;1202;61711;-78
2021/08/28 01:20:03;;;;;;;3.40;2.60;;;;;;;12.46;100.00;100960.70;110894;1196;60950;-79
2021/08/28 01:22:30;;;;;;;3.60;2.60;;;;;;;12.47;100.00;100961.98;110937;1202;74670;-78
2021/08/28 01:24:58;;;;;;;4.00;2.70;;;;;;;12.47;100.00;100961.86;111354;1203;70942;-79
2021/08/28 01:28:01;;;;;;;3.00;2.10;;;;;;;12.46;100.00;100965.25;110950;1202;73355;-79
2021/08/28 01:30:28;;;;;;;4.20;2.40;;;;;;;12.44;100.00;100961.91;110916;1202;62697;-78
2021/08/28 01:32:54;;;;;;;4.40;3.20;;;;;;;12.43;100.00;100961.52;111120;1201;61110;-78
2021/08/28 01:35:22;;;;;;;4.10;2.50;;;;;;;12.44;100.00;100962.11;111123;1202;61080;-78
2021/08/28 01:37:50;;;;;;;4.60;2.80;;;;;;;12.44;100.00;100958.91;111071;1203;71758;-77
2021/08/28 01:40:19;;;;;;;3.30;2.30;;;;;;;12.44;100.00;100959.04;111277;1202;72686;-79
2021/08/28 01:42:46;;;;;;;4.60;2.70;;;;;;;12.44;100.00;100962.89;111101;1202;62051;-79
2021/08/28 01:45:15;;;;;;;5.70;2.70;;;;;;;12.43;100.00;100963.12;111201;1201;61302;-78
2021/08/28 01:47:44;;;;;;;3.50;2.60;;;;;;;12.43;100.00;100960.42;111350;1201;74566;-80
2021/08/28 01:50:14;;;;;;;4.20;2.80;;;;;;;12.45;100.00;100958.77;111302;1203;71157;-78
2021/08/28 01:52:40;;;;;;;5.20;2.60;;;;;;;12.46;100.00;100960.42;111220;1202;72867;-80
2021/08/28 01:55:07;;;;;;;4.00;2.70;;;;;;;12.49;100.00;100960.10;111243;1195;61694;-80
2021/08/28 01:57:35;;;;;;;5.50;2.60;;;;;;;12.51;100.00;100960.09;111293;1202;61179;-78
2021/08/28 02:00:03;;;;;;;3.50;2.60;;;;;;;12.52;100.00;100960.16;111628;1202;74910;-80
2021/08/28 02:02:30;;;;;;;3.80;2.60;;;;;;;12.54;100.00;100962.05;112344;1202;71073;-80
2021/08/28 02:04:57;;;;;;;4.10;3.00;;;;;;;12.54;100.00;100958.64;112006;1202;72545;-78
2021/08/28 02:07:36;;;;;;;6.50;3.10;;;;;;;12.52;100.00;100957.61;111558;1202;62690;-80
2021/08/28 02:10:15;;;;;;;4.10;3.30;;;;;;;12.49;100.00;100956.75;111186;1202;61021;-79
2021/08/28 02:12:51;;;;;;;4.70;2.70;;;;;;;12.48;100.00;100954.64;110898;1202;75523;-79
2021/08/28 02:15:39;;;;;;;4.40;2.90;;;;;;;12.45;100.00;100955.25;111295;1202;70948;-79
2021/08/28 02:18:30;;;;;;;3.80;2.60;;;;;;;12.42;100.00;100951.86;111158;1202;71308;-79
2021/08/28 02:20:59;;;;;;;4.50;2.90;;;;;;;12.40;100.00;100949.36;111105;1201;62836;-79
2021/08/28 02:23:35;;;;;;;3.80;2.70;;;;;;;12.39;100.00;100952.66;111302;1202;61085;-80
2021/08/28 02:26:08;;;;;;;5.90;2.90;;;;;;;12.37;100.00;100947.15;111325;1196;74765;-77
2021/08/28 02:28:42;;;;;;;5.10;3.10;;;;;;;12.37;100.00;100948.45;111063;1202;70495;-82
2021/08/28 02:31:10;;;;;;;4.90;3.20;;;;;;;12.35;100.00;100944.02;111476;1197;73747;-80
2021/08/28 02:33:37;;;;;;;4.60;3.10;;;;;;;12.33;100.00;100941.73;111279;1202;61820;-78
2021/08/28 02:36:05;;;;;;;5.80;3.50;;;;;;;12.34;100.00;100939.33;111103;1202;61104;-79
2021/08/28 02:38:32;;;;;;;4.20;3.00;;;;;;;12.36;100.00;100941.61;111291;1202;75448;-79
2021/08/28 02:41:02;;;;;;;4.70;2.90;;;;;;;12.37;100.00;100939.71;111065;1203;70890;-79
2021/08/28 02:43:30;;;;;;;4.20;3.10;;;;;;;12.37;100.00;100940.64;110929;1202;73959;-79
2021/08/28 02:45:57;;;;;;;5.90;3.60;;;;;;;12.35;100.00;100933.70;110958;1202;62886;-78
2021/08/28 02:48:26;;;;;;;4.40;3.10;;;;;;;12.35;100.00;100928.65;110869;1202;61709;-79
2021/08/28 02:50:54;;;;;;;4.60;3.00;;;;;;;12.35;100.00;100928.13;110854;1202;74631;-78
2021/08/28 02:53:23;;;;;;;5.00;3.20;;;;;;;12.36;100.00;100927.07;111033;1201;69973;-79
2021/08/28 02:55:50;;;;;;;4.40;3.30;;;;;;;12.36;100.00;100927.27;111146;1202;73604;-78
2021/08/28 02:58:19;;;;;;;5.00;3.40;;;;;;;12.35;100.00;100929.36;110859;1202;62334;-78
2021/08/28 03:00:47;;;;;;;4.40;3.40;;;;;;;12.33;100.00;100928.14;111291;1195;61102;-80
2021/08/28 03:03:16;;;;;;;5.00;3.90;;;;;;;12.33;100.00;100922.11;111361;1195;74637;-80
2021/08/28 03:05:47;;;;;;;6.70;3.50;;;;;;;12.35;100.00;100922.31;111370;1202;71695;-79
2021/08/28 03:08:15;;;;;;;6.70;3.90;;;;;;;12.35;100.00;100926.20;110869;1203;72524;-78
2021/08/28 03:10:46;;;;;;;8.30;3.90;;;;;;;12.33;100.00;100923.55;111004;1201;61713;-78
2021/08/28 03:13:13;;;;;;;5.00;4.10;;;;;;;12.34;100.00;100928.31;110869;1203;61233;-79
2021/08/28 03:15:43;;;;;;;5.10;3.90;;;;;;;12.36;100.00;100932.41;111202;1202;74556;-79
2021/08/28 03:18:12;;;;;;;6.00;4.30;;;;;;;12.38;100.00;100934.52;111479;1195;72013;-78
2021/08/28 03:20:42;;;;;;;6.20;3.90;;;;;;;12.37;100.00;100936.55;111026;1195;72538;-79
2021/08/28 03:23:12;;;;;;;5.30;4.10;;;;;;;12.37;100.00;100934.96;111265;1201;61780;-79
2021/08/28 03:25:40;;;;;;;6.50;4.40;;;;;;;12.36;100.00;100929.90;111090;1202;61074;-79
2021/08/28 03:28:07;;;;;;;6.40;4.00;;;;;;;12.36;100.00;100928.48;111280;1202;75546;-78
2021/08/28 03:30:34;;;;;;;5.60;4.10;;;;;;;12.38;100.00;100925.96;111698;1195;71992;-77
2021/08/28 03:33:02;;;;;;;4.70;3.80;;;;;;;12.40;100.00;100921.45;111225;1202;72866;-78
2021/08/28 03:35:29;;;;;;;4.90;3.90;;;;;;;12.41;100.00;100923.06;112010;1202;61964;-78
2021/08/28 03:37:56;;;;;;;6.60;3.90;;;;;;;12.42;100.00;100926.31;111026;1202;61025;-78
2021/08/28 03:40:24;;;;;;;8.00;4.20;;;;;;;12.45;100.00;100925.86;111215;1202;74480;-79
2021/08/28 03:42:50;;;;;;;4.80;4.10;;;;;;;12.47;100.00;100928.64;111031;1195;71943;-79
2021/08/28 03:45:16;;;;;;;8.80;4.60;;;;;;;12.49;100.00;100930.02;110998;1202;61122;-78
2021/08/28 03:47:44;;;;;;;6.20;4.50;;;;;;;12.52;100.00;100926.13;110863;1202;61171;-78
2021/08/28 03:50:13;;;;;;;6.10;4.80;;;;;;;12.52;100.00;100925.55;111032;1202;61077;-76
2021/08/28 03:52:39;;;;;;;5.90;4.70;;;;;;;12.53;100.00;100918.73;111270;1195;74520;-78
2021/08/28 03:55:06;;;;;;;6.90;5.20;;;;;;;12.55;100.00;100923.06;111151;1203;72581;-78
2021/08/28 03:57:33;;;;;;;6.90;5.40;;;;;;;12.56;100.00;100922.15;111095;1202;72631;-79
2021/08/28 03:59:59;;;;;;;5.40;4.60;;;;;;;12.58;100.00;100924.00;111143;1195;61069;-78
2021/08/28 04:02:26;;;;;;;6.50;4.90;;;;;;;12.58;100.00;100924.99;110980;1196;61098;-79
2021/08/28 04:04:53;;;;;;;6.90;4.40;;;;;;;12.59;100.00;100925.55;111161;1202;74396;-77
2021/08/28 04:07:19;;;;;;;6.00;4.50;;;;;;;12.59;100.00;100929.98;111115;1202;61079;-79
2021/08/28 04:09:46;;;;;;;6.50;4.90;;;;;;;12.61;100.00;100930.48;111128;1195;61114;-78
2021/08/28 04:12:12;;;;;;;8.20;5.10;;;;;;;12.61;100.00;100925.13;111128;1202;60944;-78
2021/08/28 04:14:38;;;;;;;8.20;5.60;;;;;;;12.63;100.00;100927.01;111158;1202;61114;-79
2021/08/28 04:17:05;;;;;;;7.40;5.20;;;;;;;12.67;100.00;100924.70;111157;1201;61339;-78
2021/08/28 04:19:32;;;;;;;7.10;5.20;;;;;;;12.68;100.00;100922.19;111169;1202;61102;-77
2021/08/28 04:21:58;;;;;;;7.00;5.10;;;;;;;12.69;100.00;100928.90;111167;1202;61062;-79
2021/08/28 04:24:25;;;;;;;6.60;5.00;;;;;;;12.67;100.00;100927.83;111227;1202;61043;-79
2021/08/28 04:26:51;;;;;;;6.70;5.20;;;;;;;12.66;100.00;100930.93;111293;1202;61078;-79
2021/08/28 04:29:18;;;;;;;8.50;5.40;;;;;;;12.65;100.00;100933.38;111398;1202;61035;-80
2021/08/28 04:31:44;;;;;;;7.00;5.40;;;;;;;12.62;100.00;100933.50;111611;1202;61702;-79
2021/08/28 04:34:11;;;;;;;7.30;5.40;;;;;;;12.62;100.00;100938.81;112774;1202;61015;-77
2021/08/28 04:36:37;;;;;;;6.90;5.10;;;;;;;12.60;100.00;100935.05;111517;1195;61083;-78
2021/08/28 04:39:04;;;;;;;5.60;4.80;;;;;;;12.57;100.00;100934.36;111106;1202;61071;-78
2021/08/28 04:41:31;;;;;;;5.30;4.40;;;;;;;12.54;100.00;100940.33;111193;1202;61151;-78
2021/08/28 04:43:57;;;;;;;6.70;4.50;;;;;;;12.53;100.00;100943.91;111288;1202;61095;-79
2021/08/28 04:46:24;;;;;;;5.50;4.80;;;;;;;12.54;100.00;100946.99;111207;1202;61185;-78
2021/08/28 04:48:50;;;;;;;6.10;4.90;;;;;;;12.54;100.00;100946.27;111262;1202;62627;-80
2021/08/28 04:51:17;;;;;;;5.20;3.90;;;;;;;12.55;100.00;100946.16;111243;1195;61749;-79
2021/08/28 04:53:43;;;;;;;5.10;4.20;;;;;;;12.53;100.00;100945.60;111154;1203;61056;-78
2021/08/28 04:56:10;;;;;;;6.90;4.30;;;;;;;12.52;100.00;100941.65;111305;1202;61086;-78
2021/08/28 04:58:36;;;;;;;6.90;5.10;;;;;;;12.53;100.00;100946.67;110900;1195;63193;-78
2021/08/28 05:01:03;;;;;;;6.20;5.30;;;;;;;12.57;100.00;100947.48;111060;1200;61100;-79
2021/08/28 05:03:30;;;;;;;5.80;5.00;;;;;;;12.63;100.00;100949.41;111050;1202;61197;-79
2021/08/28 05:05:57;;;;;;;8.30;5.80;;;;;;;12.70;100.00;100955.01;111111;1202;73819;-77
2021/08/28 05:08:23;;;;;;;6.90;4.90;;;;;;;12.78;100.00;100959.75;111136;1202;61131;-80
2021/08/28 05:10:50;;;;;;;7.90;4.70;;;;;;;12.87;100.00;100959.19;111178;1202;61961;-78
2021/08/28 05:13:16;;;;;;;8.10;5.20;;;;;;;12.97;100.00;100962.03;111093;1202;62252;-78
2021/08/28 05:15:43;;;;;;;5.30;4.60;;;;;;;13.07;100.00;100966.92;111113;1202;61043;-78
2021/08/28 05:18:09;;;;;;;6.80;4.50;;;;;;;13.12;100.00;100964.13;111112;1202;61103;-78
2021/08/28 05:20:36;;;;;;;7.60;5.70;;;;;;;13.15;100.00;100962.39;111023;1202;62083;-78
2021/08/28 05:23:03;;;;;;;5.30;3.80;;;;;;;13.18;100.00;100962.39;111475;1195;61124;-78
2021/08/28 05:25:29;;;;;;;6.10;5.10;;;;;;;13.16;100.00;100966.94;111210;1202;61080;-79
2021/08/28 05:27:56;;;;;;;6.50;4.80;;;;;;;13.14;100.00;100971.30;111197;1202;61003;-78
2021/08/28 05:30:22;;;;;;;9.00;6.20;;;;;;;13.10;100.00;100974.02;111195;1202;61141;-78
2021/08/28 05:32:49;;;;;;;9.20;6.50;;;;;;;13.11;100.00;100977.10;111066;1202;61466;-79
2021/08/28 05:35:15;;;;;;;10.30;6.80;;;;;;;13.13;100.00;100978.99;111333;1202;72662;-79
2021/08/28 05:37:42;;;;;;;8.90;6.10;;;;;;;13.14;100.00;100983.55;111767;1195;61066;-79
2021/08/28 05:40:09;;;;;;;10.30;7.30;;;;;;;13.15;100.00;100986.04;111003;1202;61108;-78
2021/08/28 05:42:36;;;;;;;14.40;7.80;;;;;;;13.17;100.00;100985.21;110948;1202;74536;-76
2021/08/28 05:45:03;;;;;;;22.10;11.10;;;;;;;13.20;100.00;100985.29;111097;1195;70043;-77
2021/08/28 05:47:30;;;;;;;18.20;9.90;;;;;;;13.19;99.96;100984.48;111042;1202;73706;-79
2021/08/28 05:49:56;;;;;;;22.80;10.80;;;;;;;13.19;100.00;100986.76;111273;1195;61623;-78
2021/08/28 05:52:23;;;;;;;27.00;12.80;;;;;;;13.21;100.00;100988.54;111299;1195;61738;-79
2021/08/28 05:54:49;;;;;;;20.40;12.20;;;;;;;13.20;99.99;100988.28;111228;1202;61089;-77
2021/08/28 05:57:16;;;;;;;25.60;12.30;;;;;;;13.20;100.00;100987.25;111283;1204;61068;-78
2021/08/28 05:59:42;;;;;;;17.50;10.10;;;;;;;13.20;100.00;100988.61;111025;1202;61712;-79
2021/08/28 06:02:09;;;;;;;16.10;8.70;;;;;;;13.22;100.00;100989.64;110895;1203;61107;-77
2021/08/28 06:04:36;;;;;;;12.30;7.30;;;;;;;13.25;100.00;100988.92;111115;1202;61076;-79
2021/08/28 06:07:02;;;;;;;11.90;7.20;;;;;;;13.30;100.00;100988.89;111598;1202;61079;-79
2021/08/28 06:09:29;;;;;;;11.50;7.40;;;;;;;13.36;100.00;100989.17;111830;1202;71996;-78
2021/08/28 06:11:56;;;;;;;11.00;6.70;;;;;;;13.45;100.00;100988.27;111227;1195;61073;-80
2021/08/28 06:14:23;;;;;;;8.50;6.20;;;;;;;13.53;99.75;100991.13;111138;1202;61449;-77
2021/08/28 06:16:50;;;;;;;9.70;5.20;;;;;;;13.57;99.22;100988.40;111014;1202;61003;-79
2021/08/28 06:19:17;;;;;;;9.50;5.40;;;;;;;13.62;99.00;100984.60;110953;1204;75641;-79
2021/08/28 06:21:43;;;;;;;13.70;7.70;;;;;;;13.66;98.45;100988.29;111232;1203;72037;-80
2021/08/28 06:24:10;;;;;;;10.90;6.30;;;;;;;13.75;98.96;100987.95;111220;1202;61088;-79
2021/08/28 06:26:36;;;;;;;10.40;7.20;;;;;;;13.90;99.15;100988.98;111251;1199;61063;-79
2021/08/28 06:29:05;;;;;;;7.70;5.90;;;;;;;14.02;98.89;100988.02;111236;1202;61083;-79
2021/08/28 06:31:31;;;;;;;10.00;6.40;;;;;;;14.10;98.43;100984.44;110979;1197;74702;-78
2021/08/28 06:33:58;;;;;;;8.60;6.40;;;;;;;14.16;98.43;100989.83;111222;1202;71643;-79
2021/08/28 06:36:25;;;;;;;8.30;5.70;;;;;;;14.19;97.32;100988.58;111355;1202;71588;-79
2021/08/28 06:38:51;;;;;;;8.10;6.00;;;;;;;14.17;96.57;100991.31;111456;1202;61551;-79
2021/08/28 06:41:18;;;;;;;9.60;5.50;;;;;;;14.14;96.31;100994.69;111497;1195;60996;-80
2021/08/28 06:43:45;;;;;;;10.80;7.10;;;;;;;14.10;96.34;100997.36;111506;1204;75730;-85
2021/08/28 06:46:11;;;;;;;7.30;5.20;;;;;;;14.11;97.12;100997.82;111392;1201;61176;-80
2021/08/28 06:48:44;;;;;;;8.80;5.60;;;;;;;14.12;96.86;101000.70;111210;1202;73570;-81
2021/08/28 06:51:10;;;;;;;6.60;4.70;;;;;;;14.10;96.08;100997.90;111638;1202;62032;-81
2021/08/28 06:53:37;;;;;;;8.80;5.10;;;;;;;14.12;96.41;100992.38;111528;1202;61043;-81
2021/08/28 06:56:04;;;;;;;10.50;5.20;;;;;;;14.13;95.78;100993.12;111159;1196;74512;-77
2021/08/28 06:58:30;;;;;;;7.20;5.60;;;;;;;14.15;95.78;100995.17;111217;1202;71133;-78
2021/08/28 07:00:57;;;;;;;8.80;4.90;;;;;;;14.21;96.18;100987.94;111175;1201;61093;-79
2021/08/28 07:03:24;;;;;;;7.50;5.50;;;;;;;14.32;95.98;100992.88;112944;1195;61276;-80
2021/08/28 07:05:50;;;;;;;7.10;4.90;;;;;;;14.44;96.14;100995.61;113902;1202;61037;-80
2021/08/28 07:08:17;;;;;;;7.30;5.20;;;;;;;14.53;95.10;100998.64;111894;1202;61130;-78
2021/08/28 07:10:43;;;;;;;6.20;4.80;;;;;;;14.60;94.68;100999.91;111129;1202;61007;-77
2021/08/28 07:13:10;;;;;;;9.30;5.60;;;;;;;14.66;94.15;101006.01;111164;1202;61083;-78
2021/08/28 07:15:37;;;;;;;7.90;5.00;;;;;;;14.77;94.04;101008.41;111148;1202;61195;-81
2021/08/28 07:18:03;;;;;;;10.60;5.00;;;;;;;14.91;94.27;101007.73;111386;1196;61094;-77
2021/08/28 07:20:30;;;;;;;7.00;4.80;;;;;;;15.08;94.07;101009.19;111282;1202;74938;-77
2021/08/28 07:22:56;;;;;;;6.10;4.00;;;;;;;15.26;92.19;101011.09;111123;1203;62276;-78
2021/08/28 07:25:23;;;;;;;6.00;3.60;;;;;;;15.34;91.09;101009.19;110917;1195;61069;-74
2021/08/28 07:27:49;;;;;;;5.30;3.70;;;;;;;15.42;90.18;101006.89;110955;1201;61003;-75
2021/08/28 07:30:16;;;;;;;6.10;4.50;;;;;;;15.48;89.58;101003.04;110937;1202;61674;-75
2021/08/28 07:32:43;;;;;;;4.60;3.50;;;;;;;15.61;90.25;101008.11;110933;1203;61070;-74
2021/08/28 07:35:09;;;;;;;6.70;4.20;;;;;;;15.75;89.38;101005.83;110843;1203;61065;-73
2021/08/28 07:37:36;;;;;;;11.70;7.70;;;;;;;15.84;88.23;101003.02;111199;1202;73709;-72
2021/08/28 07:40:04;;;;;;;7.30;4.70;;;;;;;15.90;87.40;101003.23;110890;1198;61063;-70
2021/08/28 07:42:55;;;;;;;8.40;4.70;;;;;;;15.92;86.83;101003.65;110898;1198;61833;-71
2021/08/28 07:45:23;;;;;;;6.00;4.60;;;;;;;15.95;87.44;100998.52;114560;1195;75988;-71
2021/08/28 07:47:49;;;;;;;6.10;4.60;;;;;;;16.04;86.29;100998.80;111819;1202;71942;-71
2021/08/28 07:50:17;;;;;;;6.90;5.10;;;;;;;16.24;85.92;100993.13;113126;1203;72525;-70
2021/08/28 07:52:44;;;;;;;8.40;4.50;;;;;;;16.46;84.81;100991.03;111030;1195;61526;-69
2021/08/28 07:55:13;;;;;;;4.90;3.50;;;;;;;16.65;84.42;100992.86;110820;1202;61085;-72
2021/08/28 07:57:40;;;;;;;5.90;3.70;;;;;;;16.76;82.15;100992.73;110979;1202;74491;-72
2021/08/28 08:00:10;;;;;;;6.60;4.20;;;;;;;16.84;82.23;100989.69;110856;1202;70906;-70
2021/08/28 08:02:38;;;;;;;5.00;3.20;;;;;;;17.01;82.17;100995.23;110874;1202;73436;-70
2021/08/28 08:05:06;;;;;;;5.80;4.10;;;;;;;17.02;80.66;100995.30;110946;1202;60959;-70
2021/08/28 08:07:32;;;;;;;4.60;2.90;;;;;;;17.02;80.26;100997.61;110894;1202;61548;-72
2021/08/28 08:09:59;;;;;;;5.30;2.90;;;;;;;17.04;80.87;101001.66;110917;1202;61069;-71
2021/08/28 08:12:25;;;;;;;6.00;3.60;;;;;;;17.01;80.59;101003.06;110916;1202;70119;-71
2021/08/28 08:14:52;;;;;;;6.10;3.60;;;;;;;16.97;81.04;101007.94;110817;1202;61026;-71
2021/08/28 08:17:18;;;;;;;4.50;2.70;;;;;;;16.96;81.93;101007.20;111010;1202;61115;-69
2021/08/28 08:19:45;;;;;;;4.60;3.30;;;;;;;16.97;80.92;101008.14;110806;1202;61618;-70
2021/08/28 08:22:13;;;;;;;5.30;2.90;;;;;;;17.06;81.48;101004.94;110804;1195;75699;-72
2021/08/28 08:24:40;;;;;;;5.80;3.50;;;;;;;17.17;81.59;101006.52;110883;1202;71204;-71
2021/08/28 08:27:06;;;;;;;4.50;3.50;;;;;;;17.22;81.06;101009.36;110859;1200;73644;-71
2021/08/28 08:29:33;;;;;;;4.30;3.00;;;;;;;17.26;81.11;101016.00;110873;1202;61662;-71
2021/08/28 08:31:59;;;;;;;5.30;3.30;;;;;;;17.26;80.53;101012.56;110844;1202;61003;-70
2021/08/28 08:34:26;;;;;;;4.60;2.80;;;;;;;17.21;79.26;101012.16;110802;1202;61107;-72
2021/08/28 08:36:52;;;;;;;4.60;2.60;;;;;;;17.19;80.26;101011.38;110913;1202;61665;-72
2021/08/28 08:39:19;;;;;;;3.50;2.40;;;;;;;17.22;78.81;101015.05;110850;1202;61066;-71
2021/08/28 08:41:47;;;;;;;3.10;2.30;;;;;;;17.22;78.29;101015.42;110894;1202;61456;-71
2021/08/28 08:44:15;;;;;;;3.30;2.10;;;;;;;17.21;78.96;101016.33;111421;1202;61493;-73
2021/08/28 08:46:44;;;;;;;2.90;2.00;;;;;;;17.14;78.91;101020.44;110794;1202;75642;-70
2021/08/28 08:49:12;;;;;;;3.30;2.20;;;;;;;17.09;79.06;101019.98;111123;1202;72036;-71
2021/08/28 08:51:39;;;;;;;3.10;2.20;;;;;;;17.08;79.27;101019.08;110966;1202;72509;-72
2021/08/28 08:54:06;;;;;;;4.30;2.00;;;;;;;17.15;79.29;101015.16;110722;1203;61706;-71
2021/08/28 08:56:33;;;;;;;3.30;1.90;;;;;;;17.25;78.83;101018.72;110889;1202;61075;-73
2021/08/28 08:59:00;;;;;;;4.40;1.90;;;;;;;17.37;78.59;101019.95;111159;1195;74373;-73
2021/08/28 09:01:27;;;;;;;2.30;1.50;;;;;;;17.49;78.39;101021.96;110929;1202;72357;-72
2021/08/28 09:03:54;;;;;;;2.60;1.70;;;;;;;17.56;76.65;101023.27;111249;1202;72566;-73
2021/08/28 09:06:21;;;;;;;2.70;1.80;;;;;;;17.60;75.93;101022.70;111115;1203;61075;-73
2021/08/28 09:08:47;;;;;;;2.50;1.50;;;;;;;17.71;76.63;101025.21;110963;1202;61095;-74
2021/08/28 09:11:24;;;;;;;2.60;1.70;;;;;;;17.84;76.22;101028.47;111080;1203;75550;-73
2021/08/28 09:14:12;;;;;;;3.90;2.70;;;;;;;17.94;75.52;101028.71;111086;1205;72004;-74
2021/08/28 09:16:41;;;;;;;2.60;1.70;;;;;;;17.99;74.68;101028.44;111442;1202;73221;-74
2021/08/28 09:19:07;;;;;;;2.10;1.70;;;;;;;17.86;73.75;101025.49;112136;1195;61049;-74
2021/08/28 09:21:35;;;;;;;3.30;1.70;;;;;;;17.78;74.01;101028.11;111080;1200;62216;-73
2021/08/28 09:24:07;;;;;;;2.40;1.70;;;;;;;17.78;74.52;101023.77;111064;1195;74661;-73
2021/08/28 09:26:37;;;;;;;2.60;1.90;;;;;;;17.83;75.19;101023.19;111143;1202;71126;-72
2021/08/28 09:29:05;;;;;;;2.10;1.30;;;;;;;17.91;74.75;101030.14;110941;1203;74435;-74
2021/08/28 09:31:48;;;;;;;2.60;1.60;;;;;;;17.95;72.66;101030.85;111069;1195;62055;-74
2021/08/28 09:34:25;;;;;;;2.30;1.30;;;;;;;18.01;72.72;101028.95;111100;1202;61712;-71
2021/08/28 09:36:56;;;;;;;2.60;1.40;;;;;;;18.21;73.13;101031.34;110849;1202;74519;-74
2021/08/28 09:39:43;;;;;;;3.20;1.60;;;;;;;18.43;73.36;101032.42;110822;1203;73039;-73
2021/08/28 09:42:21;;;;;;;1.90;1.50;;;;;;;18.54;73.10;101026.35;110910;1194;72269;-72
2021/08/28 09:44:50;;;;;;;2.30;1.60;;;;;;;18.42;71.00;101034.67;110897;1202;62292;-72
2021/08/28 09:47:20;;;;;;;2.30;1.60;;;;;;;18.22;72.06;101035.73;110890;1202;62163;-73
2021/08/28 09:49:49;;;;;;;2.10;1.40;;;;;;;17.94;72.37;101032.97;110861;1204;73884;-72
2021/08/28 09:52:20;;;;;;;1.90;1.20;;;;;;;17.61;73.01;101031.41;111395;1203;71028;-73
2021/08/28 09:54:47;;;;;;;2.10;1.30;;;;;;;17.36;75.02;101028.54;110818;1202;72497;-74
2021/08/28 09:57:15;;;;;;;2.00;1.30;;;;;;;17.13;76.60;101030.75;111116;1202;62330;-72
2021/08/28 09:59:42;;;;;;;3.30;2.30;;;;;;;16.87;78.34;101034.41;111031;1203;60945;-74
2021/08/28 10:02:11;;;;;;;3.40;2.00;;;;;;;16.62;79.74;101034.86;110831;1202;74573;-74
2021/08/28 10:04:48;;;;;;;3.80;1.60;;;;;;;16.41;81.42;101035.40;110991;1202;71956;-73
2021/08/28 10:07:19;;;;;;;4.30;2.20;;;;;;;16.26;82.69;101034.55;110855;1204;71461;-71
2021/08/28 10:09:46;;;;;;;3.40;2.10;;;;;;;16.12;83.80;101036.19;111011;1195;64509;-74
2021/08/28 10:12:17;;;;;;;3.00;2.00;;;;;;;15.97;84.59;101036.48;111129;1202;61201;-74
2021/08/28 10:14:44;;;;;;;3.50;2.10;;;;;;;15.78;85.98;101037.34;111112;1204;74492;-73
2021/08/28 10:17:11;;;;;;;3.80;2.20;;;;;;;15.69;86.96;101035.29;111127;1202;71077;-73
2021/08/28 10:19:39;;;;;;;3.70;2.60;;;;;;;15.66;87.74;101034.92;111216;1202;72499;-73
2021/08/28 10:22:07;;;;;;;2.80;2.10;;;;;;;15.59;88.43;101032.96;111026;1202;62103;-73
2021/08/28 10:24:36;;;;;;;5.10;2.30;;;;;;;15.52;88.26;101034.85;111070;1202;61010;-72
2021/08/28 10:27:02;;;;;;;3.30;1.90;;;;;;;15.46;88.43;101038.45;111152;1202;75569;-74
2021/08/28 10:29:29;;;;;;;3.40;2.40;;;;;;;15.39;89.25;101031.97;111072;1202;72021;-75
2021/08/28 10:31:55;;;;;;;5.10;2.60;;;;;;;15.35;89.83;101034.73;110875;1195;61095;-75
2021/08/28 10:34:22;;;;;;;5.00;2.60;;;;;;;15.40;89.91;101036.73;110814;1197;61111;-73
2021/08/28 10:36:50;;;;;;;4.10;1.80;;;;;;;15.59;90.14;101031.72;110815;1204;61046;-73
2021/08/28 10:39:17;;;;;;;6.40;2.90;;;;;;;15.80;90.06;101034.55;110975;1201;75509;-73
2021/08/28 10:41:44;;;;;;;3.30;2.30;;;;;;;16.02;89.44;101033.98;110836;1202;70644;-73
2021/08/28 10:44:11;;;;;;;3.80;2.30;;;;;;;16.23;87.61;101034.30;111018;1195;73621;-73
2021/08/28 10:46:41;;;;;;;2.90;2.20;;;;;;;16.45;87.06;101034.95;110883;1202;61006;-71
2021/08/28 10:49:11;;;;;;;3.00;1.90;;;;;;;16.69;86.61;101037.62;110881;1204;61447;-72
2021/08/28 10:51:42;;;;;;;3.60;2.30;;;;;;;16.90;85.22;101032.40;111185;1202;76021;-73
2021/08/28 10:54:11;;;;;;;2.70;2.00;;;;;;;17.16;84.07;101025.83;111106;1203;71131;-74
2021/08/28 10:56:53;;;;;;;3.50;2.40;;;;;;;17.42;82.42;101026.70;110908;1202;73443;-72
2021/08/28 10:59:25;;;;;;;3.20;2.30;;;;;;;17.75;81.87;101024.16;110877;1202;61587;-73
2021/08/28 11:02:01;;;;;;;5.10;2.80;;;;;;;18.01;81.46;101025.90;111136;1202;60944;-73
2021/08/28 11:04:42;;;;;;;3.70;2.20;;;;;;;18.24;80.47;101026.58;111119;1196;74871;-73
2021/08/28 11:07:39;;;;;;;3.00;2.20;;;;;;;18.44;79.09;101026.52;110901;1203;71935;-74
2021/08/28 11:10:17;;;;;;;3.30;2.60;;;;;;;18.58;78.83;101023.16;110876;1200;72727;-74
2021/08/28 11:12:51;;;;;;;3.80;2.40;;;;;;;18.71;78.79;101022.23;110901;1195;61014;-72
2021/08/28 11:15:24;;;;;;;4.20;2.70;;;;;;;18.80;77.06;101021.27;110988;1195;61050;-73
2021/08/28 11:17:55;;;;;;;3.40;2.50;;;;;;;18.96;77.01;101018.59;110860;1202;74617;-72